sensor_id;sensor_type;location;lat;lon;timestamp;P1;durP1;ratioP1;P2;durP2;ratioP2
39874;SDS011;25547;52.530;13.194;2022-08-21T00:01:30;3.53;;;2.40;;
39874;SDS011;25547;52.530;13.194;2022-08-21T00:03:56;3.17;;;2.58;;
39874;SDS011;25547;52.530;13.194;2022-08-21T00:06:31;3.25;;;2.65;;
39874;SDS011;25547;52.530;13.194;2022-08-21T00:08:58;4.70;;;2.28;;
39874;SDS011;25547;52.530;13.194;2022-08-21T00:11:26;4.80;;;2.30;;
39874;SDS011;25547;52.530;13.194;2022-08-21T00:13:52;4.60;;;3.10;;
39874;SDS011;25547;52.530;13.194;2022-08-21T00:16:19;4.40;;;3.17;;
39874;SDS011;25547;52.530;13.194;2022-08-21T00:18:47;3.75;;;2.80;;
39874;SDS011;25547;52.530;13.194;2022-08-21T00:21:15;3.47;;;2.13;;
39874;SDS011;25547;52.530;13.194;2022-08-21T00:23:42;3.92;;;2.47;;
39874;SDS011;25547;52.530;13.194;2022-08-21T00:26:10;4.38;;;2.47;;
39874;SDS011;25547;52.530;13.194;2022-08-21T00:28:35;3.38;;;2.40;;
39874;SDS011;25547;52.530;13.194;2022-08-21T00:31:01;9.98;;;3.22;;
39874;SDS011;25547;52.530;13.194;2022-08-21T00:33:31;3.95;;;2.85;;
39874;SDS011;25547;52.530;13.194;2022-08-21T00:35:57;4.82;;;2.13;;
39874;SDS011;25547;52.530;13.194;2022-08-21T00:38:23;2.88;;;1.98;;
39874;SDS011;25547;52.530;13.194;2022-08-21T00:40:52;6.30;;;2.30;;
39874;SDS011;25547;52.530;13.194;2022-08-21T00:43:23;5.20;;;2.05;;
39874;SDS011;25547;52.530;13.194;2022-08-21T00:45:53;2.97;;;2.08;;
39874;SDS011;25547;52.530;13.194;2022-08-21T00:48:20;4.32;;;2.47;;
39874;SDS011;25547;52.530;13.194;2022-08-21T00:50:49;4.03;;;2.92;;
39874;SDS011;25547;52.530;13.194;2022-08-21T00:53:27;5.95;;;2.55;;
39874;SDS011;25547;52.530;13.194;2022-08-21T00:56:02;3.38;;;2.55;;
39874;SDS011;25547;52.530;13.194;2022-08-21T00:58:28;3.38;;;2.20;;
39874;SDS011;25547;52.530;13.194;2022-08-21T01:00:57;7.90;;;2.35;;
39874;SDS011;25547;52.530;13.194;2022-08-21T01:03:26;4.05;;;1.90;;
39874;SDS011;25547;52.530;13.194;2022-08-21T01:05:52;3.72;;;2.33;;
39874;SDS011;25547;52.530;13.194;2022-08-21T01:08:19;5.68;;;2.45;;
39874;SDS011;25547;52.530;13.194;2022-08-21T01:10:51;6.75;;;2.25;;
39874;SDS011;25547;52.530;13.194;2022-08-21T01:13:20;4.30;;;2.35;;
39874;SDS011;25547;52.530;13.194;2022-08-21T01:15:50;3.13;;;1.98;;
39874;SDS011;25547;52.530;13.194;2022-08-21T01:18:20;5.20;;;3.00;;
39874;SDS011;25547;52.530;13.194;2022-08-21T01:21:03;3.78;;;2.33;;
39874;SDS011;25547;52.530;13.194;2022-08-21T01:23:34;3.08;;;2.05;;
39874;SDS011;25547;52.530;13.194;2022-08-21T01:26:02;4.65;;;1.90;;
39874;SDS011;25547;52.530;13.194;2022-08-21T01:28:32;4.85;;;2.03;;
39874;SDS011;25547;52.530;13.194;2022-08-21T01:31:01;3.20;;;2.33;;
39874;SDS011;25547;52.530;13.194;2022-08-21T01:33:30;3.10;;;1.77;;
39874;SDS011;25547;52.530;13.194;2022-08-21T01:35:55;6.43;;;2.20;;
39874;SDS011;25547;52.530;13.194;2022-08-21T01:38:21;3.65;;;2.17;;
39874;SDS011;25547;52.530;13.194;2022-08-21T01:40:47;3.85;;;1.77;;
39874;SDS011;25547;52.530;13.194;2022-08-21T01:43:12;10.75;;;3.42;;
39874;SDS011;25547;52.530;13.194;2022-08-21T01:45:38;3.80;;;2.08;;
39874;SDS011;25547;52.530;13.194;2022-08-21T01:48:03;3.67;;;2.10;;
39874;SDS011;25547;52.530;13.194;2022-08-21T01:50:29;3.63;;;2.35;;
39874;SDS011;25547;52.530;13.194;2022-08-21T01:52:58;4.20;;;2.38;;
39874;SDS011;25547;52.530;13.194;2022-08-21T01:55:24;5.80;;;2.13;;
39874;SDS011;25547;52.530;13.194;2022-08-21T01:57:50;3.72;;;1.85;;
39874;SDS011;25547;52.530;13.194;2022-08-21T02:00:16;6.07;;;2.33;;
39874;SDS011;25547;52.530;13.194;2022-08-21T02:02:43;5.40;;;1.98;;
39874;SDS011;25547;52.530;13.194;2022-08-21T02:05:16;3.90;;;1.88;;
39874;SDS011;25547;52.530;13.194;2022-08-21T02:07:45;2.80;;;1.50;;
39874;SDS011;25547;52.530;13.194;2022-08-21T02:10:14;4.72;;;1.20;;
39874;SDS011;25547;52.530;13.194;2022-08-21T02:12:41;2.65;;;1.08;;
39874;SDS011;25547;52.530;13.194;2022-08-21T02:15:09;7.70;;;0.77;;
39874;SDS011;25547;52.530;13.194;2022-08-21T02:17:44;7.00;;;0.75;;
39874;SDS011;25547;52.530;13.194;2022-08-21T02:20:24;4.65;;;0.90;;
39874;SDS011;25547;52.530;13.194;2022-08-21T02:22:57;3.45;;;1.13;;
39874;SDS011;25547;52.530;13.194;2022-08-21T02:25:24;3.60;;;0.80;;
39874;SDS011;25547;52.530;13.194;2022-08-21T02:27:50;4.15;;;0.55;;
39874;SDS011;25547;52.530;13.194;2022-08-21T02:30:29;2.13;;;0.52;;
39874;SDS011;25547;52.530;13.194;2022-08-21T02:32:59;1.98;;;0.40;;
39874;SDS011;25547;52.530;13.194;2022-08-21T02:35:27;3.88;;;0.73;;
39874;SDS011;25547;52.530;13.194;2022-08-21T02:37:58;2.55;;;0.60;;
39874;SDS011;25547;52.530;13.194;2022-08-21T02:40:27;1.83;;;0.50;;
39874;SDS011;25547;52.530;13.194;2022-08-21T02:42:59;4.93;;;0.50;;
39874;SDS011;25547;52.530;13.194;2022-08-21T02:45:32;5.75;;;0.50;;
39874;SDS011;25547;52.530;13.194;2022-08-21T02:47:59;5.78;;;0.68;;
39874;SDS011;25547;52.530;13.194;2022-08-21T02:50:30;4.55;;;0.80;;
39874;SDS011;25547;52.530;13.194;2022-08-21T02:52:59;2.25;;;0.85;;
39874;SDS011;25547;52.530;13.194;2022-08-21T02:55:26;6.32;;;0.82;;
39874;SDS011;25547;52.530;13.194;2022-08-21T02:57:54;4.60;;;0.70;;
39874;SDS011;25547;52.530;13.194;2022-08-21T03:00:21;7.10;;;0.70;;
39874;SDS011;25547;52.530;13.194;2022-08-21T03:02:52;2.95;;;0.50;;
39874;SDS011;25547;52.530;13.194;2022-08-21T03:05:21;2.97;;;0.65;;
39874;SDS011;25547;52.530;13.194;2022-08-21T03:07:48;3.50;;;1.17;;
39874;SDS011;25547;52.530;13.194;2022-08-21T03:10:17;4.00;;;0.40;;
39874;SDS011;25547;52.530;13.194;2022-08-21T03:12:46;5.63;;;0.70;;
39874;SDS011;25547;52.530;13.194;2022-08-21T03:15:15;4.95;;;0.77;;
39874;SDS011;25547;52.530;13.194;2022-08-21T03:17:43;4.63;;;0.63;;
39874;SDS011;25547;52.530;13.194;2022-08-21T03:20:15;2.77;;;0.50;;
39874;SDS011;25547;52.530;13.194;2022-08-21T03:22:44;3.30;;;0.60;;
39874;SDS011;25547;52.530;13.194;2022-08-21T03:25:13;3.95;;;0.50;;
39874;SDS011;25547;52.530;13.194;2022-08-21T03:27:41;3.42;;;0.52;;
39874;SDS011;25547;52.530;13.194;2022-08-21T03:30:07;4.28;;;0.50;;
39874;SDS011;25547;52.530;13.194;2022-08-21T03:32:34;3.97;;;0.50;;
39874;SDS011;25547;52.530;13.194;2022-08-21T03:35:01;4.50;;;0.50;;
39874;SDS011;25547;52.530;13.194;2022-08-21T03:37:29;1.83;;;0.30;;
39874;SDS011;25547;52.530;13.194;2022-08-21T03:39:55;5.97;;;0.80;;
39874;SDS011;25547;52.530;13.194;2022-08-21T03:42:23;4.07;;;0.47;;
39874;SDS011;25547;52.530;13.194;2022-08-21T03:44:49;7.78;;;0.80;;
39874;SDS011;25547;52.530;13.194;2022-08-21T03:47:17;1.70;;;0.50;;
39874;SDS011;25547;52.530;13.194;2022-08-21T03:49:45;4.93;;;0.63;;
39874;SDS011;25547;52.530;13.194;2022-08-21T03:52:13;3.20;;;0.50;;
39874;SDS011;25547;52.530;13.194;2022-08-21T03:54:39;2.42;;;0.38;;
39874;SDS011;25547;52.530;13.194;2022-08-21T03:57:06;5.65;;;0.40;;
39874;SDS011;25547;52.530;13.194;2022-08-21T03:59:32;2.88;;;0.40;;
39874;SDS011;25547;52.530;13.194;2022-08-21T04:01:59;3.95;;;0.40;;
39874;SDS011;25547;52.530;13.194;2022-08-21T04:04:26;3.92;;;0.70;;
39874;SDS011;25547;52.530;13.194;2022-08-21T04:06:56;6.57;;;0.77;;
39874;SDS011;25547;52.530;13.194;2022-08-21T04:09:22;8.65;;;1.95;;
39874;SDS011;25547;52.530;13.194;2022-08-21T04:11:51;2.03;;;0.80;;
39874;SDS011;25547;52.530;13.194;2022-08-21T04:14:17;4.75;;;0.65;;
39874;SDS011;25547;52.530;13.194;2022-08-21T04:16:43;5.97;;;1.15;;
39874;SDS011;25547;52.530;13.194;2022-08-21T04:19:09;2.53;;;0.73;;
39874;SDS011;25547;52.530;13.194;2022-08-21T04:21:36;2.65;;;0.50;;
39874;SDS011;25547;52.530;13.194;2022-08-21T04:24:06;1.98;;;0.40;;
39874;SDS011;25547;52.530;13.194;2022-08-21T04:26:36;2.25;;;0.60;;
39874;SDS011;25547;52.530;13.194;2022-08-21T04:29:03;4.15;;;0.50;;
39874;SDS011;25547;52.530;13.194;2022-08-21T04:31:33;1.92;;;0.50;;
39874;SDS011;25547;52.530;13.194;2022-08-21T04:34:04;3.72;;;0.88;;
39874;SDS011;25547;52.530;13.194;2022-08-21T04:36:31;6.97;;;1.27;;
39874;SDS011;25547;52.530;13.194;2022-08-21T04:38:58;3.88;;;0.50;;
39874;SDS011;25547;52.530;13.194;2022-08-21T04:41:23;2.10;;;0.30;;
39874;SDS011;25547;52.530;13.194;2022-08-21T04:43:49;2.75;;;0.50;;
39874;SDS011;25547;52.530;13.194;2022-08-21T04:46:16;5.78;;;0.50;;
39874;SDS011;25547;52.530;13.194;2022-08-21T04:48:44;10.60;;;2.45;;
39874;SDS011;25547;52.530;13.194;2022-08-21T04:51:13;4.30;;;0.55;;
39874;SDS011;25547;52.530;13.194;2022-08-21T04:56:32;5.60;;;0.40;;
39874;SDS011;25547;52.530;13.194;2022-08-21T04:59:04;3.38;;;0.35;;
39874;SDS011;25547;52.530;13.194;2022-08-21T05:01:35;3.95;;;0.30;;
39874;SDS011;25547;52.530;13.194;2022-08-21T05:04:04;2.03;;;0.20;;
39874;SDS011;25547;52.530;13.194;2022-08-21T05:06:33;3.33;;;0.30;;
39874;SDS011;25547;52.530;13.194;2022-08-21T05:09:02;2.13;;;0.20;;
39874;SDS011;25547;52.530;13.194;2022-08-21T05:11:32;3.33;;;0.30;;
39874;SDS011;25547;52.530;13.194;2022-08-21T05:13:58;3.28;;;0.40;;
39874;SDS011;25547;52.530;13.194;2022-08-21T05:16:24;2.70;;;0.28;;
39874;SDS011;25547;52.530;13.194;2022-08-21T05:18:52;4.68;;;0.50;;
39874;SDS011;25547;52.530;13.194;2022-08-21T05:21:20;2.22;;;0.40;;
39874;SDS011;25547;52.530;13.194;2022-08-21T05:23:52;5.03;;;0.30;;
39874;SDS011;25547;52.530;13.194;2022-08-21T05:26:18;2.63;;;0.22;;
39874;SDS011;25547;52.530;13.194;2022-08-21T05:28:44;3.75;;;0.30;;
39874;SDS011;25547;52.530;13.194;2022-08-21T05:31:09;1.55;;;0.20;;
39874;SDS011;25547;52.530;13.194;2022-08-21T05:33:35;2.00;;;0.30;;
39874;SDS011;25547;52.530;13.194;2022-08-21T05:36:01;2.65;;;0.20;;
39874;SDS011;25547;52.530;13.194;2022-08-21T05:38:27;3.60;;;0.20;;
39874;SDS011;25547;52.530;13.194;2022-08-21T05:40:53;2.15;;;0.15;;
39874;SDS011;25547;52.530;13.194;2022-08-21T05:43:21;2.67;;;0.50;;
39874;SDS011;25547;52.530;13.194;2022-08-21T05:45:47;5.45;;;0.28;;
39874;SDS011;25547;52.530;13.194;2022-08-21T05:48:16;2.13;;;0.20;;
39874;SDS011;25547;52.530;13.194;2022-08-21T05:50:46;2.38;;;0.20;;
39874;SDS011;25547;52.530;13.194;2022-08-21T05:53:13;2.72;;;0.20;;
39874;SDS011;25547;52.530;13.194;2022-08-21T05:55:40;7.82;;;0.30;;
39874;SDS011;25547;52.530;13.194;2022-08-21T05:58:08;3.70;;;0.20;;
39874;SDS011;25547;52.530;13.194;2022-08-21T06:00:36;1.63;;;0.20;;
39874;SDS011;25547;52.530;13.194;2022-08-21T06:03:02;6.97;;;0.17;;
39874;SDS011;25547;52.530;13.194;2022-08-21T06:05:28;1.90;;;0.25;;
39874;SDS011;25547;52.530;13.194;2022-08-21T06:07:56;2.45;;;0.10;;
39874;SDS011;25547;52.530;13.194;2022-08-21T06:10:22;1.52;;;0.10;;
39874;SDS011;25547;52.530;13.194;2022-08-21T06:12:52;5.93;;;0.20;;
39874;SDS011;25547;52.530;13.194;2022-08-21T06:15:19;3.47;;;0.52;;
39874;SDS011;25547;52.530;13.194;2022-08-21T06:17:45;2.22;;;0.10;;
39874;SDS011;25547;52.530;13.194;2022-08-21T06:20:10;3.47;;;0.20;;
39874;SDS011;25547;52.530;13.194;2022-08-21T06:22:38;9.38;;;0.50;;
39874;SDS011;25547;52.530;13.194;2022-08-21T06:25:04;6.43;;;0.17;;
39874;SDS011;25547;52.530;13.194;2022-08-21T06:27:30;5.63;;;1.23;;
39874;SDS011;25547;52.530;13.194;2022-08-21T06:29:58;2.40;;;0.10;;
39874;SDS011;25547;52.530;13.194;2022-08-21T06:32:23;3.63;;;0.10;;
39874;SDS011;25547;52.530;13.194;2022-08-21T06:34:51;3.53;;;0.20;;
39874;SDS011;25547;52.530;13.194;2022-08-21T06:37:17;7.00;;;0.10;;
39874;SDS011;25547;52.530;13.194;2022-08-21T06:39:42;3.90;;;0.20;;
39874;SDS011;25547;52.530;13.194;2022-08-21T06:42:12;8.27;;;0.20;;
39874;SDS011;25547;52.530;13.194;2022-08-21T06:44:42;3.53;;;0.25;;
39874;SDS011;25547;52.530;13.194;2022-08-21T06:47:11;5.05;;;0.20;;
39874;SDS011;25547;52.530;13.194;2022-08-21T06:49:38;6.25;;;0.20;;
39874;SDS011;25547;52.530;13.194;2022-08-21T06:52:07;4.15;;;0.15;;
39874;SDS011;25547;52.530;13.194;2022-08-21T06:54:37;3.22;;;0.10;;
39874;SDS011;25547;52.530;13.194;2022-08-21T06:57:03;3.45;;;0.20;;
39874;SDS011;25547;52.530;13.194;2022-08-21T06:59:30;2.85;;;0.43;;
39874;SDS011;25547;52.530;13.194;2022-08-21T07:01:58;1.70;;;0.10;;
39874;SDS011;25547;52.530;13.194;2022-08-21T07:04:27;4.85;;;0.82;;
39874;SDS011;25547;52.530;13.194;2022-08-21T07:06:55;5.20;;;0.10;;
39874;SDS011;25547;52.530;13.194;2022-08-21T07:09:20;3.92;;;0.47;;
39874;SDS011;25547;52.530;13.194;2022-08-21T07:11:46;3.83;;;0.10;;
39874;SDS011;25547;52.530;13.194;2022-08-21T07:14:16;1.98;;;0.10;;
39874;SDS011;25547;52.530;13.194;2022-08-21T07:16:41;3.50;;;0.25;;
39874;SDS011;25547;52.530;13.194;2022-08-21T07:19:07;2.40;;;0.10;;
39874;SDS011;25547;52.530;13.194;2022-08-21T07:21:32;2.92;;;0.10;;
39874;SDS011;25547;52.530;13.194;2022-08-21T07:24:00;1.35;;;0.10;;
39874;SDS011;25547;52.530;13.194;2022-08-21T07:26:26;1.88;;;0.10;;
39874;SDS011;25547;52.530;13.194;2022-08-21T07:28:52;1.27;;;0.10;;
39874;SDS011;25547;52.530;13.194;2022-08-21T07:31:18;2.65;;;0.55;;
39874;SDS011;25547;52.530;13.194;2022-08-21T07:33:46;1.33;;;0.10;;
39874;SDS011;25547;52.530;13.194;2022-08-21T07:36:12;3.92;;;0.10;;
39874;SDS011;25547;52.530;13.194;2022-08-21T07:38:38;1.50;;;0.10;;
39874;SDS011;25547;52.530;13.194;2022-08-21T07:41:17;2.25;;;0.20;;
39874;SDS011;25547;52.530;13.194;2022-08-21T07:43:44;4.32;;;0.10;;
39874;SDS011;25547;52.530;13.194;2022-08-21T07:46:10;3.53;;;0.73;;
39874;SDS011;25547;52.530;13.194;2022-08-21T07:48:41;4.22;;;0.10;;
39874;SDS011;25547;52.530;13.194;2022-08-21T07:51:09;3.80;;;0.10;;
39874;SDS011;25547;52.530;13.194;2022-08-21T07:53:36;1.17;;;0.10;;
39874;SDS011;25547;52.530;13.194;2022-08-21T07:56:05;3.10;;;0.10;;
39874;SDS011;25547;52.530;13.194;2022-08-21T07:58:33;6.15;;;0.10;;
39874;SDS011;25547;52.530;13.194;2022-08-21T08:00:59;2.08;;;0.05;;
39874;SDS011;25547;52.530;13.194;2022-08-21T08:03:25;1.45;;;0.10;;
39874;SDS011;25547;52.530;13.194;2022-08-21T08:05:51;1.67;;;0.00;;
39874;SDS011;25547;52.530;13.194;2022-08-21T08:08:16;3.58;;;0.05;;
39874;SDS011;25547;52.530;13.194;2022-08-21T08:10:42;1.83;;;0.15;;
39874;SDS011;25547;52.530;13.194;2022-08-21T08:13:08;1.92;;;0.10;;
39874;SDS011;25547;52.530;13.194;2022-08-21T08:15:35;1.55;;;0.08;;
39874;SDS011;25547;52.530;13.194;2022-08-21T08:18:01;2.08;;;0.13;;
39874;SDS011;25547;52.530;13.194;2022-08-21T08:20:29;2.10;;;0.10;;
39874;SDS011;25547;52.530;13.194;2022-08-21T08:22:57;1.40;;;0.10;;
39874;SDS011;25547;52.530;13.194;2022-08-21T08:25:26;1.27;;;0.00;;
39874;SDS011;25547;52.530;13.194;2022-08-21T08:27:52;2.55;;;0.00;;
39874;SDS011;25547;52.530;13.194;2022-08-21T08:30:18;2.83;;;0.10;;
39874;SDS011;25547;52.530;13.194;2022-08-21T08:32:48;3.85;;;0.03;;
39874;SDS011;25547;52.530;13.194;2022-08-21T08:35:17;4.43;;;0.08;;
39874;SDS011;25547;52.530;13.194;2022-08-21T08:37:45;2.00;;;0.38;;
39874;SDS011;25547;52.530;13.194;2022-08-21T08:40:12;1.27;;;0.08;;
39874;SDS011;25547;52.530;13.194;2022-08-21T08:42:47;1.85;;;0.20;;
39874;SDS011;25547;52.530;13.194;2022-08-21T08:45:18;2.53;;;0.10;;
39874;SDS011;25547;52.530;13.194;2022-08-21T08:47:49;2.40;;;0.10;;
39874;SDS011;25547;52.530;13.194;2022-08-21T08:55:51;4.38;;;0.10;;
39874;SDS011;25547;52.530;13.194;2022-08-21T08:58:27;5.75;;;0.20;;
39874;SDS011;25547;52.530;13.194;2022-08-21T09:01:00;2.45;;;0.00;;
39874;SDS011;25547;52.530;13.194;2022-08-21T09:03:27;3.05;;;0.10;;
39874;SDS011;25547;52.530;13.194;2022-08-21T09:08:50;3.45;;;0.20;;
39874;SDS011;25547;52.530;13.194;2022-08-21T09:11:43;3.20;;;0.22;;
39874;SDS011;25547;52.530;13.194;2022-08-21T09:16:58;7.15;;;0.10;;
39874;SDS011;25547;52.530;13.194;2022-08-21T09:22:19;2.13;;;0.10;;
39874;SDS011;25547;52.530;13.194;2022-08-21T09:27:44;1.60;;;0.00;;
39874;SDS011;25547;52.530;13.194;2022-08-21T09:30:10;2.20;;;0.10;;
39874;SDS011;25547;52.530;13.194;2022-08-21T09:32:37;2.90;;;1.00;;
39874;SDS011;25547;52.530;13.194;2022-08-21T09:35:14;4.95;;;0.52;;
39874;SDS011;25547;52.530;13.194;2022-08-21T09:43:22;2.60;;;0.00;;
39874;SDS011;25547;52.530;13.194;2022-08-21T09:45:48;2.17;;;0.05;;
39874;SDS011;25547;52.530;13.194;2022-08-21T09:48:27;2.63;;;0.03;;
39874;SDS011;25547;52.530;13.194;2022-08-21T09:51:04;1.02;;;0.10;;
39874;SDS011;25547;52.530;13.194;2022-08-21T09:53:38;1.13;;;0.08;;
39874;SDS011;25547;52.530;13.194;2022-08-21T09:56:25;1.88;;;0.08;;
39874;SDS011;25547;52.530;13.194;2022-08-21T09:59:35;4.13;;;0.10;;
39874;SDS011;25547;52.530;13.194;2022-08-21T10:02:14;2.53;;;0.10;;
39874;SDS011;25547;52.530;13.194;2022-08-21T10:05:06;0.88;;;0.08;;
39874;SDS011;25547;52.530;13.194;2022-08-21T10:07:36;1.02;;;0.00;;
39874;SDS011;25547;52.530;13.194;2022-08-21T10:15:51;5.53;;;0.30;;
39874;SDS011;25547;52.530;13.194;2022-08-21T10:41:01;0.77;;;0.00;;
39874;SDS011;25547;52.530;13.194;2022-08-21T10:48:37;2.22;;;0.00;;
39874;SDS011;25547;52.530;13.194;2022-08-21T10:54:10;0.55;;;0.00;;
39874;SDS011;25547;52.530;13.194;2022-08-21T10:56:42;0.98;;;0.00;;
39874;SDS011;25547;52.530;13.194;2022-08-21T11:07:22;0.85;;;0.00;;
39874;SDS011;25547;52.530;13.194;2022-08-21T11:09:57;4.40;;;0.00;;
39874;SDS011;25547;52.530;13.194;2022-08-21T11:12:46;1.02;;;0.00;;
39874;SDS011;25547;52.530;13.194;2022-08-21T11:23:44;2.10;;;0.10;;
39874;SDS011;25547;52.530;13.194;2022-08-21T11:26:25;1.55;;;0.10;;
39874;SDS011;25547;52.530;13.194;2022-08-21T11:34:39;1.00;;;0.00;;
39874;SDS011;25547;52.530;13.194;2022-08-21T11:37:21;2.30;;;0.10;;
39874;SDS011;25547;52.530;13.194;2022-08-21T11:42:55;2.90;;;0.00;;
39874;SDS011;25547;52.530;13.194;2022-08-21T11:45:39;1.75;;;0.00;;
39874;SDS011;25547;52.530;13.194;2022-08-21T11:48:29;0.85;;;0.00;;
39874;SDS011;25547;52.530;13.194;2022-08-21T11:51:16;2.03;;;0.22;;
39874;SDS011;25547;52.530;13.194;2022-08-21T11:53:51;0.75;;;0.00;;
39874;SDS011;25547;52.530;13.194;2022-08-21T11:56:33;1.00;;;0.10;;
39874;SDS011;25547;52.530;13.194;2022-08-21T11:59:08;1.35;;;0.08;;
39874;SDS011;25547;52.530;13.194;2022-08-21T12:01:42;5.40;;;0.10;;
39874;SDS011;25547;52.530;13.194;2022-08-21T12:04:16;0.88;;;0.10;;
39874;SDS011;25547;52.530;13.194;2022-08-21T12:06:51;2.78;;;0.10;;
39874;SDS011;25547;52.530;13.194;2022-08-21T12:11:50;1.95;;;0.10;;
39874;SDS011;25547;52.530;13.194;2022-08-21T12:14:34;2.35;;;0.10;;
39874;SDS011;25547;52.530;13.194;2022-08-21T12:17:34;0.95;;;0.10;;
39874;SDS011;25547;52.530;13.194;2022-08-21T12:20:16;0.70;;;0.00;;
39874;SDS011;25547;52.530;13.194;2022-08-21T12:28:08;2.75;;;0.32;;
39874;SDS011;25547;52.530;13.194;2022-08-21T12:30:37;1.95;;;0.00;;
39874;SDS011;25547;52.530;13.194;2022-08-21T12:33:06;1.03;;;0.10;;
39874;SDS011;25547;52.530;13.194;2022-08-21T12:36:12;0.98;;;0.00;;
39874;SDS011;25547;52.530;13.194;2022-08-21T12:41:28;1.25;;;0.08;;
39874;SDS011;25547;52.530;13.194;2022-08-21T12:44:03;3.78;;;0.10;;
39874;SDS011;25547;52.530;13.194;2022-08-21T12:46:36;2.95;;;0.52;;
39874;SDS011;25547;52.530;13.194;2022-08-21T12:49:51;1.20;;;0.03;;
39874;SDS011;25547;52.530;13.194;2022-08-21T12:52:06;1.50;;;0.10;;
39874;SDS011;25547;52.530;13.194;2022-08-21T12:54:46;1.10;;;0.00;;
39874;SDS011;25547;52.530;13.194;2022-08-21T12:57:24;2.50;;;0.10;;
39874;SDS011;25547;52.530;13.194;2022-08-21T13:02:26;1.77;;;0.10;;
39874;SDS011;25547;52.530;13.194;2022-08-21T13:04:58;2.80;;;0.10;;
39874;SDS011;25547;52.530;13.194;2022-08-21T13:07:31;1.30;;;0.10;;
39874;SDS011;25547;52.530;13.194;2022-08-21T13:10:04;4.40;;;0.13;;
39874;SDS011;25547;52.530;13.194;2022-08-21T13:12:38;0.75;;;0.10;;
39874;SDS011;25547;52.530;13.194;2022-08-21T13:15:06;1.83;;;0.10;;
39874;SDS011;25547;52.530;13.194;2022-08-21T13:17:34;2.25;;;0.57;;
39874;SDS011;25547;52.530;13.194;2022-08-21T13:20:05;2.60;;;0.10;;
39874;SDS011;25547;52.530;13.194;2022-08-21T13:22:39;3.38;;;0.47;;
39874;SDS011;25547;52.530;13.194;2022-08-21T13:25:14;1.20;;;0.32;;
39874;SDS011;25547;52.530;13.194;2022-08-21T13:27:55;3.58;;;1.42;;
39874;SDS011;25547;52.530;13.194;2022-08-21T13:30:26;3.63;;;0.10;;
39874;SDS011;25547;52.530;13.194;2022-08-21T13:32:55;2.88;;;0.08;;
39874;SDS011;25547;52.530;13.194;2022-08-21T13:36:28;2.90;;;0.35;;
39874;SDS011;25547;52.530;13.194;2022-08-21T13:38:22;1.63;;;0.10;;
39874;SDS011;25547;52.530;13.194;2022-08-21T13:40:51;1.40;;;0.10;;
39874;SDS011;25547;52.530;13.194;2022-08-21T13:43:22;2.60;;;0.10;;
39874;SDS011;25547;52.530;13.194;2022-08-21T13:45:55;4.63;;;0.10;;
39874;SDS011;25547;52.530;13.194;2022-08-21T13:48:22;3.85;;;0.10;;
39874;SDS011;25547;52.530;13.194;2022-08-21T13:50:51;1.70;;;0.10;;
39874;SDS011;25547;52.530;13.194;2022-08-21T13:53:27;1.45;;;0.10;;
39874;SDS011;25547;52.530;13.194;2022-08-21T13:55:56;4.15;;;0.10;;
39874;SDS011;25547;52.530;13.194;2022-08-21T13:58:30;4.03;;;0.50;;
39874;SDS011;25547;52.530;13.194;2022-08-21T14:00:58;1.73;;;0.10;;
39874;SDS011;25547;52.530;13.194;2022-08-21T14:03:29;2.50;;;0.10;;
39874;SDS011;25547;52.530;13.194;2022-08-21T14:05:59;0.68;;;0.05;;
39874;SDS011;25547;52.530;13.194;2022-08-21T14:08:35;1.85;;;0.22;;
39874;SDS011;25547;52.530;13.194;2022-08-21T14:11:03;4.20;;;0.10;;
39874;SDS011;25547;52.530;13.194;2022-08-21T14:13:43;3.45;;;0.10;;
39874;SDS011;25547;52.530;13.194;2022-08-21T14:21:32;5.68;;;0.10;;
39874;SDS011;25547;52.530;13.194;2022-08-21T14:24:10;4.25;;;0.10;;
39874;SDS011;25547;52.530;13.194;2022-08-21T14:26:51;5.07;;;0.10;;
39874;SDS011;25547;52.530;13.194;2022-08-21T14:29:37;5.60;;;0.10;;
39874;SDS011;25547;52.530;13.194;2022-08-21T14:32:15;4.13;;;0.30;;
39874;SDS011;25547;52.530;13.194;2022-08-21T14:34:45;2.50;;;0.17;;
39874;SDS011;25547;52.530;13.194;2022-08-21T14:37:11;5.75;;;0.30;;
39874;SDS011;25547;52.530;13.194;2022-08-21T14:39:39;3.33;;;0.40;;
39874;SDS011;25547;52.530;13.194;2022-08-21T14:42:05;3.35;;;0.80;;
39874;SDS011;25547;52.530;13.194;2022-08-21T14:44:30;6.60;;;0.10;;
39874;SDS011;25547;52.530;13.194;2022-08-21T14:46:58;3.38;;;0.30;;
39874;SDS011;25547;52.530;13.194;2022-08-21T14:49:24;1.70;;;0.40;;
39874;SDS011;25547;52.530;13.194;2022-08-21T14:51:52;2.65;;;0.13;;
39874;SDS011;25547;52.530;13.194;2022-08-21T14:54:22;4.13;;;0.10;;
39874;SDS011;25547;52.530;13.194;2022-08-21T14:59:20;4.00;;;0.10;;
39874;SDS011;25547;52.530;13.194;2022-08-21T15:01:46;2.13;;;0.10;;
39874;SDS011;25547;52.530;13.194;2022-08-21T15:04:14;3.67;;;0.45;;
39874;SDS011;25547;52.530;13.194;2022-08-21T15:06:43;7.68;;;0.20;;
39874;SDS011;25547;52.530;13.194;2022-08-21T15:09:08;6.22;;;0.20;;
39874;SDS011;25547;52.530;13.194;2022-08-21T15:11:34;2.55;;;0.10;;
39874;SDS011;25547;52.530;13.194;2022-08-21T15:14:03;3.20;;;0.52;;
39874;SDS011;25547;52.530;13.194;2022-08-21T15:16:33;2.65;;;0.10;;
39874;SDS011;25547;52.530;13.194;2022-08-21T15:18:59;4.38;;;0.10;;
39874;SDS011;25547;52.530;13.194;2022-08-21T15:21:27;1.58;;;0.10;;
39874;SDS011;25547;52.530;13.194;2022-08-21T15:23:52;1.35;;;0.10;;
39874;SDS011;25547;52.530;13.194;2022-08-21T15:26:19;1.55;;;0.15;;
39874;SDS011;25547;52.530;13.194;2022-08-21T15:28:47;1.88;;;0.10;;
39874;SDS011;25547;52.530;13.194;2022-08-21T15:31:15;3.08;;;0.10;;
39874;SDS011;25547;52.530;13.194;2022-08-21T15:33:43;5.07;;;0.20;;
39874;SDS011;25547;52.530;13.194;2022-08-21T15:36:08;2.47;;;0.35;;
39874;SDS011;25547;52.530;13.194;2022-08-21T15:38:34;1.92;;;0.10;;
39874;SDS011;25547;52.530;13.194;2022-08-21T15:41:01;2.78;;;0.10;;
39874;SDS011;25547;52.530;13.194;2022-08-21T15:43:29;1.00;;;0.10;;
39874;SDS011;25547;52.530;13.194;2022-08-21T15:46:00;5.15;;;0.25;;
39874;SDS011;25547;52.530;13.194;2022-08-21T15:48:26;2.65;;;0.10;;
39874;SDS011;25547;52.530;13.194;2022-08-21T15:50:52;4.88;;;0.10;;
39874;SDS011;25547;52.530;13.194;2022-08-21T15:53:18;2.75;;;0.10;;
39874;SDS011;25547;52.530;13.194;2022-08-21T15:55:44;5.22;;;0.10;;
39874;SDS011;25547;52.530;13.194;2022-08-21T15:58:14;3.50;;;0.10;;
39874;SDS011;25547;52.530;13.194;2022-08-21T16:03:09;2.35;;;0.13;;
39874;SDS011;25547;52.530;13.194;2022-08-21T16:05:39;1.00;;;0.10;;
39874;SDS011;25547;52.530;13.194;2022-08-21T16:08:05;3.03;;;0.20;;
39874;SDS011;25547;52.530;13.194;2022-08-21T16:10:35;2.72;;;0.20;;
39874;SDS011;25547;52.530;13.194;2022-08-21T16:13:03;1.33;;;0.10;;
39874;SDS011;25547;52.530;13.194;2022-08-21T16:15:31;3.05;;;0.20;;
39874;SDS011;25547;52.530;13.194;2022-08-21T16:17:57;2.88;;;0.20;;
39874;SDS011;25547;52.530;13.194;2022-08-21T16:20:24;3.58;;;0.10;;
39874;SDS011;25547;52.530;13.194;2022-08-21T16:22:53;4.30;;;0.20;;
39874;SDS011;25547;52.530;13.194;2022-08-21T16:25:20;2.60;;;0.10;;
39874;SDS011;25547;52.530;13.194;2022-08-21T16:27:49;2.83;;;0.50;;
39874;SDS011;25547;52.530;13.194;2022-08-21T16:30:22;1.52;;;0.20;;
39874;SDS011;25547;52.530;13.194;2022-08-21T16:32:51;3.65;;;0.10;;
39874;SDS011;25547;52.530;13.194;2022-08-21T16:37:47;3.33;;;0.35;;
39874;SDS011;25547;52.530;13.194;2022-08-21T16:40:13;3.75;;;0.15;;
39874;SDS011;25547;52.530;13.194;2022-08-21T16:45:14;2.63;;;0.22;;